createdAt,value
2023-02-19T00:01:25.689Z,4.30
2023-02-19T00:03:53.375Z,3.90
2023-02-19T00:06:19.788Z,3.80
2023-02-19T00:08:45.777Z,6.10
2023-02-19T00:11:13.358Z,3.50
2023-02-19T00:13:44.073Z,6.20
2023-02-19T00:16:18.771Z,2.50
2023-02-19T00:18:44.852Z,5.80
2023-02-19T00:21:11.567Z,3.40
2023-02-19T00:23:37.704Z,5.80
2023-02-19T00:26:17.684Z,2.60
2023-02-19T00:28:45.608Z,5.60
2023-02-19T00:31:14.466Z,5.80
2023-02-19T00:33:40.870Z,6.10
2023-02-19T00:36:07.210Z,5.70
2023-02-19T00:38:36.110Z,3.30
2023-02-19T00:41:18.239Z,3.10
2023-02-19T00:43:54.959Z,5.50
2023-02-19T00:46:28.416Z,5.70
2023-02-19T00:48:54.696Z,2.60
2023-02-19T00:51:24.165Z,3.10
2023-02-19T00:53:50.415Z,5.80
2023-02-19T00:56:16.758Z,3.10
2023-02-19T00:58:42.683Z,2.30
2023-02-19T01:01:09.471Z,6.10
2023-02-19T01:03:36.044Z,5.90
2023-02-19T01:06:02.296Z,2.70
2023-02-19T01:08:30.357Z,6.50
2023-02-19T01:10:59.019Z,6.60
2023-02-19T01:13:25.160Z,6.50
2023-02-19T01:15:51.167Z,4.60
2023-02-19T01:18:17.161Z,6.70
2023-02-19T01:20:43.854Z,6.00
2023-02-19T01:23:10.390Z,3.60
2023-02-19T01:25:40.303Z,2.80
2023-02-19T01:28:06.495Z,2.30
2023-02-19T01:30:36.561Z,4.10
2023-02-19T01:33:07.080Z,7.00
2023-02-19T01:35:33.589Z,4.00
2023-02-19T01:37:59.517Z,7.70
2023-02-19T01:40:26.109Z,3.10
2023-02-19T01:42:52.101Z,7.90
2023-02-19T01:45:31.266Z,3.50
2023-02-19T01:48:03.510Z,3.50
2023-02-19T01:50:32.586Z,4.20
2023-02-19T01:52:59.008Z,7.10
2023-02-19T01:55:24.913Z,6.90
2023-02-19T01:57:52.819Z,3.00
2023-02-19T02:00:18.783Z,6.20
2023-02-19T02:02:48.059Z,5.90
2023-02-19T02:05:24.944Z,2.20
2023-02-19T02:08:10.017Z,6.20
2023-02-19T02:10:35.936Z,3.60
2023-02-19T02:13:01.854Z,5.80
2023-02-19T02:15:34.190Z,3.90
2023-02-19T02:18:16.829Z,3.50
2023-02-19T02:21:03.571Z,6.10
2023-02-19T02:23:40.142Z,4.30
2023-02-19T02:26:15.433Z,7.00
2023-02-19T02:28:47.540Z,4.60
2023-02-19T02:31:16.058Z,7.50
2023-02-19T02:34:04.271Z,7.40
2023-02-19T02:36:35.369Z,7.50
2023-02-19T02:39:02.838Z,7.70
2023-02-19T02:43:54.807Z,5.20
2023-02-19T02:46:27.880Z,8.00
2023-02-19T02:48:57.958Z,8.00
2023-02-19T02:51:29.373Z,8.00
2023-02-19T02:54:24.549Z,4.40
2023-02-19T02:56:50.770Z,5.30
2023-02-19T02:59:21.931Z,8.70
2023-02-19T03:02:13.386Z,8.60
2023-02-19T03:05:15.802Z,5.50
2023-02-19T03:08:05.568Z,6.30
2023-02-19T03:10:48.226Z,9.50
2023-02-19T03:13:53.467Z,5.60
2023-02-19T03:16:42.792Z,8.70
2023-02-19T03:19:20.067Z,8.90
2023-02-19T03:21:59.613Z,8.70
2023-02-19T03:24:48.951Z,5.20
2023-02-19T03:27:16.591Z,9.00
2023-02-19T03:29:45.647Z,8.60
2023-02-19T03:32:21.447Z,9.20
2023-02-19T03:35:08.792Z,5.10
2023-02-19T03:37:40.783Z,5.60
2023-02-19T03:40:07.493Z,6.50
2023-02-19T03:42:58.590Z,9.20
2023-02-19T03:45:34.994Z,9.20
2023-02-19T03:48:15.836Z,9.30
2023-02-19T03:50:51.544Z,8.90
2023-02-19T03:53:29.157Z,8.90
2023-02-19T03:56:08.405Z,9.20
2023-02-19T03:58:41.106Z,9.60
2023-02-19T04:01:14.350Z,6.10
2023-02-19T04:03:46.249Z,9.20
2023-02-19T04:06:14.022Z,9.60
2023-02-19T04:08:42.273Z,9.80
2023-02-19T04:11:08.623Z,9.60
2023-02-19T04:13:37.955Z,9.50
2023-02-19T04:16:07.221Z,6.30
2023-02-19T04:18:35.794Z,6.20
2023-02-19T04:21:01.751Z,10.00
2023-02-19T04:23:27.933Z,5.40
2023-02-19T04:25:55.744Z,10.00
2023-02-19T04:28:21.704Z,9.50
2023-02-19T04:30:47.657Z,5.80
2023-02-19T04:33:13.618Z,10.20
2023-02-19T04:35:39.709Z,9.60
2023-02-19T04:38:05.719Z,6.50
2023-02-19T04:40:31.687Z,10.20
2023-02-19T04:42:57.616Z,10.70
2023-02-19T04:45:23.541Z,6.20
2023-02-19T04:47:49.607Z,10.50
2023-02-19T04:50:15.743Z,10.70
2023-02-19T04:52:41.706Z,10.20
2023-02-19T04:55:07.747Z,6.30
2023-02-19T04:57:34.320Z,10.60
2023-02-19T05:00:00.242Z,6.40
2023-02-19T05:02:26.209Z,10.40
2023-02-19T05:04:52.227Z,10.40
2023-02-19T05:07:18.311Z,10.20
2023-02-19T05:09:44.259Z,10.30
2023-02-19T05:12:10.177Z,10.10
2023-02-19T05:14:36.291Z,10.10
2023-02-19T05:17:02.256Z,6.10
2023-02-19T05:19:28.185Z,6.10
2023-02-19T05:21:54.153Z,9.90
2023-02-19T05:24:20.085Z,9.70
2023-02-19T05:26:47.641Z,6.30
2023-02-19T05:29:13.654Z,6.30
2023-02-19T05:31:39.758Z,10.90
2023-02-19T05:34:05.870Z,10.60
2023-02-19T05:36:32.058Z,10.50
2023-02-19T05:38:58.187Z,6.10
2023-02-19T05:41:25.706Z,9.90
2023-02-19T05:43:51.847Z,5.50
2023-02-19T05:46:20.974Z,6.00
2023-02-19T05:48:47.993Z,6.10
2023-02-19T05:51:15.996Z,10.10
2023-02-19T05:53:42.187Z,4.80
2023-02-19T05:56:42.387Z,10.20
2023-02-19T05:59:16.846Z,6.10
2023-02-19T06:01:42.861Z,10.30
2023-02-19T06:04:10.221Z,7.10
2023-02-19T06:06:36.767Z,6.20
2023-02-19T06:09:03.973Z,7.30
2023-02-19T06:13:55.935Z,6.30
2023-02-19T06:16:22.222Z,6.80
2023-02-19T06:18:48.315Z,11.20
2023-02-19T06:21:14.782Z,10.80
2023-02-19T06:23:40.886Z,7.00
2023-02-19T06:26:09.671Z,4.80
2023-02-19T06:28:36.265Z,7.00
2023-02-19T06:31:02.766Z,6.90
2023-02-19T06:33:28.945Z,7.10
2023-02-19T06:35:57.447Z,13.00
2023-02-19T06:38:23.416Z,13.40
2023-02-19T06:40:49.326Z,13.20
2023-02-19T06:43:15.247Z,12.30
2023-02-19T06:45:41.329Z,11.60
2023-02-19T06:48:07.358Z,7.20
2023-02-19T06:50:33.284Z,11.20
2023-02-19T06:52:59.163Z,11.90
2023-02-19T06:55:25.069Z,11.10
2023-02-19T06:57:50.949Z,4.50
2023-02-19T07:00:17.347Z,11.40
2023-02-19T07:02:43.397Z,5.50
2023-02-19T07:05:09.359Z,3.90
2023-02-19T07:07:35.357Z,9.10
2023-02-19T07:10:01.240Z,9.50
2023-02-19T07:12:27.305Z,8.80
2023-02-19T07:14:53.304Z,5.50
2023-02-19T07:17:19.235Z,4.40
2023-02-19T07:19:45.125Z,8.60
2023-02-19T07:22:11.023Z,4.30
2023-02-19T07:24:36.993Z,4.20
2023-02-19T07:27:03.061Z,9.50
2023-02-19T07:29:28.967Z,8.60
2023-02-19T07:31:54.887Z,4.80
2023-02-19T07:34:20.831Z,4.90
2023-02-19T07:36:46.721Z,8.70
2023-02-19T07:39:14.993Z,8.50
2023-02-19T07:41:40.940Z,8.80
2023-02-19T07:44:06.835Z,8.70
2023-02-19T07:46:32.757Z,4.10
2023-02-19T07:48:59.076Z,8.10
2023-02-19T07:51:27.527Z,8.80
2023-02-19T07:53:53.468Z,3.40
2023-02-19T07:56:20.082Z,8.30
2023-02-19T07:58:46.003Z,4.50
2023-02-19T08:01:16.652Z,3.70
2023-02-19T08:03:42.815Z,5.20
2023-02-19T08:06:10.655Z,8.50
2023-02-19T08:08:40.026Z,4.90
2023-02-19T08:11:24.810Z,5.30
2023-02-19T08:13:51.388Z,8.40
2023-02-19T08:16:29.668Z,4.30
2023-02-19T08:18:59.524Z,4.50
2023-02-19T08:21:25.518Z,3.10
2023-02-19T08:23:51.515Z,8.40
2023-02-19T08:26:17.649Z,4.70
2023-02-19T08:28:43.597Z,8.80
2023-02-19T08:31:10.908Z,3.80
2023-02-19T08:33:37.588Z,7.50
2023-02-19T08:36:05.000Z,7.60
2023-02-19T08:38:32.155Z,3.60
2023-02-19T08:43:24.401Z,8.40
2023-02-19T08:45:52.415Z,5.10
2023-02-19T08:48:18.303Z,9.10
2023-02-19T08:50:44.230Z,8.60
2023-02-19T08:53:10.193Z,7.70
2023-02-19T08:55:36.798Z,7.90
2023-02-19T08:58:02.731Z,8.30
2023-02-19T09:00:28.684Z,7.50
2023-02-19T09:02:57.037Z,7.80
2023-02-19T09:05:23.009Z,7.80
2023-02-19T09:07:49.042Z,7.80
2023-02-19T09:10:15.020Z,7.50
2023-02-19T09:12:41.074Z,8.40
2023-02-19T09:15:07.432Z,7.80
2023-02-19T09:17:33.378Z,7.60
2023-02-19T09:19:59.346Z,8.00
2023-02-19T09:22:25.338Z,8.20
2023-02-19T09:24:51.231Z,7.70
2023-02-19T09:27:18.240Z,7.50
2023-02-19T09:29:44.222Z,2.30
2023-02-19T09:32:10.602Z,7.90
2023-02-19T09:34:38.326Z,7.10
2023-02-19T09:37:05.056Z,2.90
2023-02-19T09:39:31.321Z,7.00
2023-02-19T09:42:00.886Z,4.20
2023-02-19T09:44:34.161Z,3.70
2023-02-19T09:47:00.759Z,6.70
2023-02-19T09:49:38.317Z,4.10
2023-02-19T09:52:12.049Z,6.50
2023-02-19T09:54:38.693Z,6.70
2023-02-19T09:57:04.812Z,6.50
2023-02-19T10:02:40.288Z,4.00
2023-02-19T10:05:13.078Z,6.80
2023-02-19T10:07:47.065Z,6.40
2023-02-19T10:10:12.947Z,6.10
2023-02-19T10:12:50.656Z,6.10
2023-02-19T10:17:56.384Z,5.30
2023-02-19T10:20:24.185Z,5.00
2023-02-19T10:22:58.606Z,5.90
2023-02-19T10:25:24.522Z,5.40
2023-02-19T10:27:50.554Z,5.40
2023-02-19T10:30:22.330Z,5.70
2023-02-19T10:33:00.616Z,4.70
2023-02-19T10:35:26.648Z,4.10
2023-02-19T10:37:52.555Z,4.00
2023-02-19T10:40:23.530Z,4.20
2023-02-19T10:42:58.385Z,1.80
2023-02-19T10:45:34.609Z,4.50
2023-02-19T10:48:00.724Z,4.50
2023-02-19T10:50:30.741Z,4.60
2023-02-19T10:52:57.919Z,2.30
2023-02-19T10:55:31.341Z,4.50
2023-02-19T10:57:57.427Z,3.90
2023-02-19T11:00:29.624Z,3.90
2023-02-19T11:03:28.162Z,4.50
2023-02-19T11:06:00.681Z,4.40
2023-02-19T11:08:26.613Z,4.80
2023-02-19T11:10:52.699Z,4.90
2023-02-19T11:13:25.491Z,4.90
2023-02-19T11:15:52.903Z,4.50
2023-02-19T11:18:30.683Z,2.50
2023-02-19T11:23:30.938Z,4.10
2023-02-19T11:26:02.732Z,4.10
2023-02-19T11:28:36.189Z,4.10
2023-02-19T11:31:15.802Z,4.50
2023-02-19T11:34:29.227Z,1.30
2023-02-19T11:37:15.108Z,4.20
2023-02-19T11:39:45.024Z,4.70
2023-02-19T11:42:32.325Z,4.30
2023-02-19T11:45:21.003Z,4.80
2023-02-19T11:47:54.893Z,2.30
2023-02-19T11:50:49.327Z,4.10
2023-02-19T11:53:25.894Z,3.90
2023-02-19T11:56:13.960Z,4.50
2023-02-19T11:58:59.516Z,3.90
2023-02-19T12:01:26.463Z,3.80
2023-02-19T12:03:52.459Z,1.70
2023-02-19T12:06:40.088Z,4.30
2023-02-19T12:09:23.410Z,4.40
2023-02-19T12:12:14.427Z,4.50
2023-02-19T12:14:52.058Z,4.10
2023-02-19T12:17:33.269Z,3.70
2023-02-19T12:20:18.171Z,3.10
2023-02-19T12:23:35.726Z,3.60
2023-02-19T12:26:06.836Z,3.60
2023-02-19T12:28:44.760Z,3.00
2023-02-19T12:31:58.575Z,1.20
2023-02-19T12:34:50.319Z,2.90
2023-02-19T12:37:44.634Z,1.90
2023-02-19T12:40:32.747Z,3.30
2023-02-19T12:43:20.696Z,3.30
2023-02-19T12:46:05.395Z,2.50
2023-02-19T12:48:52.995Z,2.80
2023-02-19T12:51:37.485Z,2.60
2023-02-19T12:54:06.665Z,3.20
2023-02-19T12:56:44.151Z,3.20
2023-02-19T12:59:35.824Z,2.80
2023-02-19T13:02:33.012Z,3.20
2023-02-19T13:05:03.550Z,3.40
2023-02-19T13:07:37.557Z,3.20
2023-02-19T13:10:33.522Z,3.10
2023-02-19T13:13:03.204Z,3.00
2023-02-19T13:15:43.568Z,3.30
2023-02-19T13:18:15.921Z,3.00
2023-02-19T13:20:42.660Z,2.80
2023-02-19T13:23:50.064Z,2.70
2023-02-19T13:26:25.505Z,2.30
2023-02-19T13:29:06.456Z,1.20
2023-02-19T13:31:52.453Z,0.80
2023-02-19T13:34:27.721Z,2.70
2023-02-19T13:36:54.047Z,0.90
2023-02-19T13:39:20.678Z,2.80
2023-02-19T13:41:51.135Z,3.00
2023-02-19T13:44:24.811Z,3.00
2023-02-19T13:46:51.037Z,3.10
2023-02-19T13:49:49.594Z,3.00
2023-02-19T13:52:18.451Z,3.10
2023-02-19T13:54:44.432Z,2.90
2023-02-19T13:57:22.804Z,2.90
2023-02-19T13:59:53.421Z,1.20
2023-02-19T14:02:22.623Z,2.90
2023-02-19T14:04:51.213Z,3.10
2023-02-19T14:07:17.125Z,2.90
2023-02-19T14:09:44.474Z,2.30
2023-02-19T14:12:15.694Z,2.70
2023-02-19T14:14:51.842Z,2.40
2023-02-19T14:17:26.685Z,3.00
2023-02-19T14:20:00.554Z,2.80
2023-02-19T14:22:57.157Z,0.90
2023-02-19T14:25:39.340Z,1.20
2023-02-19T14:28:32.801Z,1.10
2023-02-19T14:31:09.416Z,2.20
2023-02-19T14:33:39.587Z,2.50
2023-02-19T14:36:15.560Z,1.60
2023-02-19T14:38:59.453Z,2.70
2023-02-19T14:41:26.244Z,2.80
2023-02-19T14:43:53.373Z,2.80
2023-02-19T14:51:34.526Z,2.90
2023-02-19T14:54:02.339Z,3.30
2023-02-19T14:56:31.658Z,1.70
2023-02-19T14:59:08.916Z,3.10
2023-02-19T15:01:35.296Z,3.30
2023-02-19T15:04:01.824Z,3.10
2023-02-19T15:06:27.723Z,1.90
2023-02-19T15:08:57.853Z,1.30
2023-02-19T15:11:24.910Z,2.70
2023-02-19T15:16:19.404Z,1.40
2023-02-19T15:18:45.858Z,2.40
2023-02-19T15:21:20.770Z,2.10
2023-02-19T15:23:46.678Z,3.60
2023-02-19T15:26:20.847Z,3.60
2023-02-19T15:28:46.729Z,3.50
2023-02-19T15:31:14.673Z,3.50
2023-02-19T15:33:48.730Z,4.50
2023-02-19T15:36:14.642Z,4.20
2023-02-19T15:38:40.657Z,1.40
2023-02-19T15:41:07.001Z,3.20
2023-02-19T15:43:44.799Z,1.60
2023-02-19T15:48:44.182Z,3.20
2023-02-19T15:51:14.269Z,1.50
2023-02-19T15:53:43.962Z,2.80
2023-02-19T15:56:17.950Z,2.80
2023-02-19T15:58:51.990Z,2.70
2023-02-19T16:01:24.666Z,1.50
2023-02-19T16:03:53.365Z,2.00
2023-02-19T16:06:19.659Z,3.30
2023-02-19T16:08:51.776Z,4.50
2023-02-19T16:11:24.136Z,1.60
2023-02-19T16:13:50.719Z,5.20
2023-02-19T16:16:24.144Z,1.80
2023-02-19T16:18:50.467Z,1.30
2023-02-19T16:21:17.534Z,4.40
2023-02-19T16:23:43.922Z,3.90
2023-02-19T16:26:09.950Z,1.40
2023-02-19T16:28:37.210Z,1.00
2023-02-19T16:31:10.837Z,6.20
2023-02-19T16:33:44.188Z,2.70
2023-02-19T16:36:32.260Z,1.90
2023-02-19T16:39:00.116Z,1.50
2023-02-19T16:41:26.151Z,1.60
2023-02-19T16:43:52.076Z,3.50
2023-02-19T16:46:18.096Z,3.80
2023-02-19T16:48:44.121Z,3.80
2023-02-19T16:51:13.934Z,1.30
2023-02-19T16:53:39.876Z,4.10
2023-02-19T16:56:09.874Z,2.40
2023-02-19T16:58:37.143Z,5.30
2023-02-19T17:01:04.632Z,2.50
2023-02-19T17:03:30.581Z,6.50
2023-02-19T17:05:56.468Z,5.50
2023-02-19T17:08:30.846Z,5.20
2023-02-19T17:10:58.528Z,4.90
2023-02-19T17:13:24.437Z,1.10
2023-02-19T17:15:50.453Z,1.20
2023-02-19T17:18:16.542Z,1.80
2023-02-19T17:20:42.605Z,2.00
2023-02-19T17:23:08.862Z,4.80
2023-02-19T17:25:34.783Z,5.10
2023-02-19T17:28:00.777Z,4.50
2023-02-19T17:30:28.660Z,4.20
2023-02-19T17:32:54.674Z,1.30
2023-02-19T17:35:20.637Z,1.10
2023-02-19T17:37:46.645Z,1.40
2023-02-19T17:40:31.883Z,5.60
2023-02-19T17:42:59.048Z,1.50
2023-02-19T17:45:25.166Z,1.40
2023-02-19T17:47:51.197Z,4.00
2023-02-19T17:50:19.359Z,3.80
2023-02-19T17:52:45.297Z,3.40
2023-02-19T17:55:11.834Z,4.30
2023-02-19T17:57:37.725Z,2.00
2023-02-19T18:00:05.216Z,4.20
2023-02-19T18:02:38.698Z,2.60
2023-02-19T18:05:05.258Z,4.90
2023-02-19T18:07:31.190Z,5.40
2023-02-19T18:09:57.101Z,1.40
2023-02-19T18:12:25.252Z,4.60
2023-02-19T18:14:53.914Z,1.60
2023-02-19T18:17:20.061Z,5.30
2023-02-19T18:19:46.156Z,1.90
2023-02-19T18:22:12.098Z,2.30
2023-02-19T18:24:38.002Z,1.80
2023-02-19T18:27:03.970Z,2.00
2023-02-19T18:29:30.408Z,6.30
2023-02-19T18:31:56.500Z,5.70
2023-02-19T18:34:22.646Z,2.40
2023-02-19T18:36:48.730Z,2.00
2023-02-19T18:39:15.021Z,2.20
2023-02-19T18:41:40.999Z,5.00
2023-02-19T18:44:07.020Z,5.00
2023-02-19T18:46:33.182Z,1.50
2023-02-19T18:48:59.082Z,2.30
2023-02-19T18:51:25.014Z,2.10
2023-02-19T18:53:51.039Z,5.20
2023-02-19T18:56:17.170Z,5.50
2023-02-19T18:58:43.131Z,5.20
2023-02-19T19:01:09.213Z,5.20
2023-02-19T19:03:35.426Z,1.70
2023-02-19T19:06:01.471Z,2.40
2023-02-19T19:08:29.168Z,2.10
2023-02-19T19:10:56.516Z,6.90
2023-02-19T19:13:22.918Z,2.10
2023-02-19T19:15:50.102Z,2.10
2023-02-19T19:20:42.007Z,2.20
2023-02-19T19:23:07.962Z,2.50
2023-02-19T19:25:33.975Z,2.50
2023-02-19T19:28:00.080Z,5.30
2023-02-19T19:30:26.079Z,2.20
2023-02-19T19:32:52.455Z,2.30
2023-02-19T19:35:18.886Z,2.00
2023-02-19T19:37:44.903Z,5.60
2023-02-19T19:40:11.576Z,5.90
2023-02-19T19:42:37.474Z,6.00
2023-02-19T19:45:04.777Z,2.60
2023-02-19T19:47:30.781Z,5.90
2023-02-19T19:49:56.665Z,2.70
2023-02-19T19:52:22.581Z,2.70
2023-02-19T19:54:53.239Z,2.80
2023-02-19T19:57:19.470Z,6.40
2023-02-19T19:59:50.423Z,6.70
2023-02-19T20:02:16.700Z,2.90
2023-02-19T20:04:42.737Z,2.90
2023-02-19T20:07:08.962Z,2.20
2023-02-19T20:09:34.885Z,2.60
2023-02-19T20:12:01.444Z,2.30
2023-02-19T20:14:27.427Z,3.00
2023-02-19T20:16:54.183Z,2.70
2023-02-19T20:19:20.221Z,5.50
2023-02-19T20:21:47.176Z,2.40
2023-02-19T20:24:15.191Z,1.60
2023-02-19T20:26:41.388Z,1.40
2023-02-19T20:29:09.729Z,1.20
2023-02-19T20:31:36.865Z,1.70
2023-02-19T20:36:29.456Z,1.70
2023-02-19T20:38:55.565Z,1.40
2023-02-19T20:41:21.472Z,1.90
2023-02-19T20:43:47.450Z,1.70
2023-02-19T20:46:13.680Z,2.60
2023-02-19T20:48:39.897Z,2.10
2023-02-19T20:51:05.882Z,2.00
2023-02-19T20:53:31.832Z,2.10
2023-02-19T20:55:58.147Z,2.30
2023-02-19T20:58:24.194Z,2.00
2023-02-19T21:00:52.882Z,5.40
2023-02-19T21:03:19.082Z,2.40
2023-02-19T21:05:45.068Z,5.50
2023-02-19T21:08:11.259Z,2.00
2023-02-19T21:10:37.664Z,2.40
2023-02-19T21:13:03.571Z,2.10
2023-02-19T21:15:29.571Z,1.90
2023-02-19T21:17:55.479Z,4.40
2023-02-19T21:20:21.414Z,2.10
2023-02-19T21:22:47.376Z,2.10
2023-02-19T21:25:13.389Z,1.90
2023-02-19T21:27:39.294Z,2.30
2023-02-19T21:30:06.443Z,2.30
2023-02-19T21:32:32.600Z,2.30
2023-02-19T21:34:59.028Z,3.30
2023-02-19T21:37:24.963Z,7.40
2023-02-19T21:39:51.369Z,3.60
2023-02-19T21:42:17.271Z,4.20
2023-02-19T21:44:43.294Z,3.80
2023-02-19T21:47:10.934Z,3.90
2023-02-19T21:49:37.016Z,2.90
2023-02-19T21:52:03.008Z,3.80
2023-02-19T21:54:29.066Z,3.50
2023-02-19T21:56:55.302Z,3.60
2023-02-19T21:59:21.628Z,3.80
2023-02-19T22:01:47.549Z,4.20
2023-02-19T22:04:15.625Z,3.80
2023-02-19T22:06:41.842Z,4.50
2023-02-19T22:09:08.077Z,3.40
2023-02-19T22:11:34.216Z,4.70
2023-02-19T22:14:00.534Z,4.90
2023-02-19T22:16:27.521Z,4.50
2023-02-19T22:18:55.699Z,5.10
2023-02-19T22:21:22.571Z,9.80
2023-02-19T22:23:49.520Z,5.40
2023-02-19T22:26:22.946Z,10.00
2023-02-19T22:28:48.912Z,3.40
2023-02-19T22:31:19.384Z,3.70
2023-02-19T22:33:45.339Z,3.40
2023-02-19T22:36:25.054Z,3.40
2023-02-19T22:38:51.180Z,8.60
2023-02-19T22:41:17.413Z,4.40
2023-02-19T22:43:43.350Z,3.90
2023-02-19T22:46:10.954Z,3.70
2023-02-19T22:48:37.226Z,8.90
2023-02-19T22:51:03.218Z,2.30
2023-02-19T22:53:29.168Z,8.50
2023-02-19T22:55:55.058Z,4.60
2023-02-19T22:58:20.989Z,4.40
2023-02-19T23:00:47.024Z,4.30
2023-02-19T23:03:13.107Z,8.60
2023-02-19T23:05:39.058Z,3.50
2023-02-19T23:08:05.005Z,8.90
2023-02-19T23:10:31.133Z,8.70
2023-02-19T23:12:57.071Z,4.30
2023-02-19T23:15:23.182Z,3.60
2023-02-19T23:17:49.209Z,3.30
2023-02-19T23:20:15.130Z,4.60
2023-02-19T23:22:41.050Z,4.50
2023-02-19T23:25:07.315Z,4.40
2023-02-19T23:27:33.236Z,8.20
2023-02-19T23:29:59.226Z,2.70
2023-02-19T23:32:25.125Z,4.40
2023-02-19T23:34:51.092Z,4.70
2023-02-19T23:37:17.056Z,9.60
2023-02-19T23:39:43.004Z,2.80
2023-02-19T23:42:13.354Z,3.20
2023-02-19T23:44:39.285Z,8.30
2023-02-19T23:47:05.203Z,2.70
2023-02-19T23:49:31.094Z,2.50
2023-02-19T23:51:56.998Z,2.60
2023-02-19T23:54:22.957Z,7.90
2023-02-19T23:56:48.906Z,3.40
2023-02-19T23:59:15.090Z,3.60
